sensor_id;sensor_type;location;lat;lon;timestamp;P1;durP1;ratioP1;P2;durP2;ratioP2
19043;SDS011;9654;52.302;8.120;2022-12-05T00:00:22;99.13;;;33.30;;
19043;SDS011;9654;52.302;8.120;2022-12-05T00:02:49;92.87;;;33.10;;
19043;SDS011;9654;52.302;8.120;2022-12-05T00:05:17;94.13;;;32.57;;
19043;SDS011;9654;52.302;8.120;2022-12-05T00:07:44;92.20;;;31.43;;
19043;SDS011;9654;52.302;8.120;2022-12-05T00:10:11;83.63;;;31.57;;
19043;SDS011;9654;52.302;8.120;2022-12-05T00:12:38;88.60;;;32.20;;
19043;SDS011;9654;52.302;8.120;2022-12-05T00:15:05;90.47;;;31.80;;
19043;SDS011;9654;52.302;8.120;2022-12-05T00:17:36;97.77;;;32.90;;
19043;SDS011;9654;52.302;8.120;2022-12-05T00:20:04;96.33;;;34.17;;
19043;SDS011;9654;52.302;8.120;2022-12-05T00:22:35;90.23;;;31.20;;
19043;SDS011;9654;52.302;8.120;2022-12-05T00:25:03;92.90;;;31.83;;
19043;SDS011;9654;52.302;8.120;2022-12-05T00:27:31;94.67;;;32.20;;
19043;SDS011;9654;52.302;8.120;2022-12-05T00:29:58;95.33;;;32.23;;
19043;SDS011;9654;52.302;8.120;2022-12-05T00:32:27;97.47;;;33.30;;
19043;SDS011;9654;52.302;8.120;2022-12-05T00:34:54;91.07;;;33.67;;
19043;SDS011;9654;52.302;8.120;2022-12-05T00:37:21;105.23;;;34.57;;
19043;SDS011;9654;52.302;8.120;2022-12-05T00:39:49;98.50;;;33.47;;
19043;SDS011;9654;52.302;8.120;2022-12-05T00:42:16;103.43;;;32.23;;
19043;SDS011;9654;52.302;8.120;2022-12-05T00:44:43;101.77;;;32.63;;
19043;SDS011;9654;52.302;8.120;2022-12-05T00:47:10;91.40;;;31.43;;
19043;SDS011;9654;52.302;8.120;2022-12-05T00:49:36;91.87;;;32.57;;
19043;SDS011;9654;52.302;8.120;2022-12-05T00:52:03;100.00;;;33.10;;
19043;SDS011;9654;52.302;8.120;2022-12-05T00:54:30;107.73;;;34.23;;
19043;SDS011;9654;52.302;8.120;2022-12-05T00:56:58;99.63;;;33.30;;
19043;SDS011;9654;52.302;8.120;2022-12-05T00:59:25;107.70;;;35.50;;
19043;SDS011;9654;52.302;8.120;2022-12-05T01:01:52;110.57;;;34.40;;
19043;SDS011;9654;52.302;8.120;2022-12-05T01:04:19;96.03;;;34.30;;
19043;SDS011;9654;52.302;8.120;2022-12-05T01:06:47;109.53;;;35.33;;
19043;SDS011;9654;52.302;8.120;2022-12-05T01:09:15;97.30;;;32.03;;
19043;SDS011;9654;52.302;8.120;2022-12-05T01:11:44;89.27;;;32.00;;
19043;SDS011;9654;52.302;8.120;2022-12-05T01:14:12;107.93;;;34.93;;
19043;SDS011;9654;52.302;8.120;2022-12-05T01:16:42;98.10;;;31.90;;
19043;SDS011;9654;52.302;8.120;2022-12-05T01:19:10;94.50;;;32.97;;
19043;SDS011;9654;52.302;8.120;2022-12-05T01:21:38;111.03;;;36.20;;
19043;SDS011;9654;52.302;8.120;2022-12-05T01:24:06;100.93;;;32.43;;
19043;SDS011;9654;52.302;8.120;2022-12-05T01:26:33;100.70;;;34.43;;
19043;SDS011;9654;52.302;8.120;2022-12-05T01:29:00;103.30;;;32.97;;
19043;SDS011;9654;52.302;8.120;2022-12-05T01:31:29;87.67;;;31.33;;
19043;SDS011;9654;52.302;8.120;2022-12-05T01:33:58;101.73;;;32.30;;
19043;SDS011;9654;52.302;8.120;2022-12-05T01:36:26;102.60;;;31.93;;
19043;SDS011;9654;52.302;8.120;2022-12-05T01:38:53;87.47;;;29.17;;
19043;SDS011;9654;52.302;8.120;2022-12-05T01:41:21;96.00;;;33.93;;
19043;SDS011;9654;52.302;8.120;2022-12-05T01:43:54;93.43;;;32.40;;
19043;SDS011;9654;52.302;8.120;2022-12-05T01:46:22;93.53;;;31.27;;
19043;SDS011;9654;52.302;8.120;2022-12-05T01:48:52;88.43;;;30.37;;
19043;SDS011;9654;52.302;8.120;2022-12-05T01:51:26;99.30;;;30.43;;
19043;SDS011;9654;52.302;8.120;2022-12-05T01:53:53;97.03;;;33.73;;
19043;SDS011;9654;52.302;8.120;2022-12-05T01:56:20;89.77;;;32.17;;
19043;SDS011;9654;52.302;8.120;2022-12-05T01:58:47;91.63;;;31.37;;
19043;SDS011;9654;52.302;8.120;2022-12-05T02:01:14;90.57;;;31.43;;
19043;SDS011;9654;52.302;8.120;2022-12-05T02:03:42;96.97;;;32.57;;
19043;SDS011;9654;52.302;8.120;2022-12-05T02:06:15;91.40;;;30.73;;
19043;SDS011;9654;52.302;8.120;2022-12-05T02:08:42;87.43;;;30.60;;
19043;SDS011;9654;52.302;8.120;2022-12-05T02:11:10;87.23;;;30.30;;
19043;SDS011;9654;52.302;8.120;2022-12-05T02:13:43;79.77;;;29.47;;
19043;SDS011;9654;52.302;8.120;2022-12-05T02:16:21;92.37;;;31.80;;
19043;SDS011;9654;52.302;8.120;2022-12-05T02:18:57;87.77;;;30.80;;
19043;SDS011;9654;52.302;8.120;2022-12-05T02:21:39;88.83;;;30.87;;
19043;SDS011;9654;52.302;8.120;2022-12-05T02:24:35;85.73;;;29.40;;
19043;SDS011;9654;52.302;8.120;2022-12-05T02:27:20;82.13;;;28.63;;
19043;SDS011;9654;52.302;8.120;2022-12-05T02:30:07;90.60;;;29.97;;
19043;SDS011;9654;52.302;8.120;2022-12-05T02:32:46;82.90;;;30.07;;
19043;SDS011;9654;52.302;8.120;2022-12-05T02:35:30;83.87;;;30.03;;
19043;SDS011;9654;52.302;8.120;2022-12-05T02:38:08;86.50;;;28.07;;
19043;SDS011;9654;52.302;8.120;2022-12-05T02:40:42;82.33;;;30.03;;
19043;SDS011;9654;52.302;8.120;2022-12-05T02:43:17;82.17;;;29.33;;
19043;SDS011;9654;52.302;8.120;2022-12-05T02:45:49;80.97;;;29.60;;
19043;SDS011;9654;52.302;8.120;2022-12-05T02:48:20;79.50;;;29.77;;
19043;SDS011;9654;52.302;8.120;2022-12-05T02:50:48;80.47;;;29.23;;
19043;SDS011;9654;52.302;8.120;2022-12-05T02:53:18;79.57;;;29.17;;
19043;SDS011;9654;52.302;8.120;2022-12-05T02:55:48;87.60;;;29.60;;
19043;SDS011;9654;52.302;8.120;2022-12-05T02:58:16;77.50;;;27.93;;
19043;SDS011;9654;52.302;8.120;2022-12-05T03:00:49;76.10;;;28.13;;
19043;SDS011;9654;52.302;8.120;2022-12-05T03:03:20;77.13;;;28.47;;
19043;SDS011;9654;52.302;8.120;2022-12-05T03:05:49;73.60;;;28.57;;
19043;SDS011;9654;52.302;8.120;2022-12-05T03:08:22;75.73;;;27.43;;
19043;SDS011;9654;52.302;8.120;2022-12-05T03:10:54;74.63;;;28.57;;
19043;SDS011;9654;52.302;8.120;2022-12-05T03:13:23;70.03;;;26.90;;
19043;SDS011;9654;52.302;8.120;2022-12-05T03:15:54;73.37;;;27.93;;
19043;SDS011;9654;52.302;8.120;2022-12-05T03:18:26;68.53;;;26.20;;
19043;SDS011;9654;52.302;8.120;2022-12-05T03:20:56;70.30;;;27.60;;
19043;SDS011;9654;52.302;8.120;2022-12-05T03:23:28;72.40;;;25.63;;
19043;SDS011;9654;52.302;8.120;2022-12-05T03:26:00;68.83;;;25.90;;
19043;SDS011;9654;52.302;8.120;2022-12-05T03:28:37;69.07;;;26.77;;
19043;SDS011;9654;52.302;8.120;2022-12-05T03:31:14;62.37;;;23.87;;
19043;SDS011;9654;52.302;8.120;2022-12-05T03:33:50;66.20;;;25.07;;
19043;SDS011;9654;52.302;8.120;2022-12-05T03:36:26;62.07;;;24.63;;
19043;SDS011;9654;52.302;8.120;2022-12-05T03:38:58;64.37;;;25.17;;
19043;SDS011;9654;52.302;8.120;2022-12-05T03:41:30;55.60;;;24.57;;
19043;SDS011;9654;52.302;8.120;2022-12-05T03:44:04;57.40;;;24.13;;
19043;SDS011;9654;52.302;8.120;2022-12-05T03:46:39;55.57;;;23.83;;
19043;SDS011;9654;52.302;8.120;2022-12-05T03:49:10;64.57;;;24.40;;
19043;SDS011;9654;52.302;8.120;2022-12-05T03:51:42;60.60;;;24.90;;
19043;SDS011;9654;52.302;8.120;2022-12-05T03:54:17;63.70;;;24.77;;
19043;SDS011;9654;52.302;8.120;2022-12-05T03:56:52;59.07;;;23.50;;
19043;SDS011;9654;52.302;8.120;2022-12-05T03:59:25;58.10;;;23.90;;
19043;SDS011;9654;52.302;8.120;2022-12-05T04:01:58;51.30;;;23.70;;
19043;SDS011;9654;52.302;8.120;2022-12-05T04:04:30;54.63;;;23.80;;
19043;SDS011;9654;52.302;8.120;2022-12-05T04:07:04;52.97;;;21.80;;
19043;SDS011;9654;52.302;8.120;2022-12-05T04:09:34;51.23;;;22.57;;
19043;SDS011;9654;52.302;8.120;2022-12-05T04:12:05;52.13;;;22.07;;
19043;SDS011;9654;52.302;8.120;2022-12-05T04:14:36;49.60;;;21.80;;
19043;SDS011;9654;52.302;8.120;2022-12-05T04:17:09;55.27;;;22.73;;
19043;SDS011;9654;52.302;8.120;2022-12-05T04:19:41;52.63;;;22.13;;
19043;SDS011;9654;52.302;8.120;2022-12-05T04:22:29;52.87;;;22.63;;
19043;SDS011;9654;52.302;8.120;2022-12-05T04:24:57;56.20;;;23.57;;
19043;SDS011;9654;52.302;8.120;2022-12-05T04:27:47;50.83;;;22.07;;
19043;SDS011;9654;52.302;8.120;2022-12-05T04:30:17;58.03;;;23.13;;
19043;SDS011;9654;52.302;8.120;2022-12-05T04:32:48;59.90;;;24.23;;
19043;SDS011;9654;52.302;8.120;2022-12-05T04:35:23;59.60;;;23.77;;
19043;SDS011;9654;52.302;8.120;2022-12-05T04:37:55;56.87;;;24.50;;
19043;SDS011;9654;52.302;8.120;2022-12-05T04:40:27;59.30;;;23.50;;
19043;SDS011;9654;52.302;8.120;2022-12-05T04:42:59;53.83;;;21.87;;
19043;SDS011;9654;52.302;8.120;2022-12-05T04:45:28;57.87;;;23.60;;
19043;SDS011;9654;52.302;8.120;2022-12-05T04:47:59;51.33;;;22.47;;
19043;SDS011;9654;52.302;8.120;2022-12-05T04:50:30;52.30;;;22.40;;
19043;SDS011;9654;52.302;8.120;2022-12-05T04:52:58;59.23;;;23.80;;
19043;SDS011;9654;52.302;8.120;2022-12-05T04:55:26;51.70;;;22.33;;
19043;SDS011;9654;52.302;8.120;2022-12-05T04:57:59;53.57;;;21.83;;
19043;SDS011;9654;52.302;8.120;2022-12-05T05:00:31;54.47;;;22.40;;
19043;SDS011;9654;52.302;8.120;2022-12-05T05:03:05;49.20;;;21.83;;
19043;SDS011;9654;52.302;8.120;2022-12-05T05:05:37;49.67;;;22.70;;
19043;SDS011;9654;52.302;8.120;2022-12-05T05:08:14;47.13;;;22.27;;
19043;SDS011;9654;52.302;8.120;2022-12-05T05:10:44;55.03;;;22.93;;
19043;SDS011;9654;52.302;8.120;2022-12-05T05:13:17;53.27;;;21.70;;
19043;SDS011;9654;52.302;8.120;2022-12-05T05:15:44;49.30;;;21.77;;
19043;SDS011;9654;52.302;8.120;2022-12-05T05:18:12;49.53;;;21.50;;
19043;SDS011;9654;52.302;8.120;2022-12-05T05:20:39;48.13;;;20.47;;
19043;SDS011;9654;52.302;8.120;2022-12-05T05:23:06;44.17;;;19.53;;
19043;SDS011;9654;52.302;8.120;2022-12-05T05:25:32;45.17;;;19.40;;
19043;SDS011;9654;52.302;8.120;2022-12-05T05:28:00;43.30;;;20.10;;
19043;SDS011;9654;52.302;8.120;2022-12-05T05:30:26;48.47;;;21.17;;
19043;SDS011;9654;52.302;8.120;2022-12-05T05:32:53;42.00;;;20.63;;
19043;SDS011;9654;52.302;8.120;2022-12-05T05:35:21;44.37;;;19.20;;
19043;SDS011;9654;52.302;8.120;2022-12-05T05:37:48;54.70;;;21.63;;
19043;SDS011;9654;52.302;8.120;2022-12-05T05:40:15;43.63;;;19.93;;
19043;SDS011;9654;52.302;8.120;2022-12-05T05:42:42;45.47;;;20.73;;
19043;SDS011;9654;52.302;8.120;2022-12-05T05:45:10;46.93;;;20.83;;
19043;SDS011;9654;52.302;8.120;2022-12-05T05:47:38;50.47;;;21.50;;
19043;SDS011;9654;52.302;8.120;2022-12-05T05:50:06;49.07;;;20.30;;
19043;SDS011;9654;52.302;8.120;2022-12-05T05:52:35;54.37;;;22.87;;
19043;SDS011;9654;52.302;8.120;2022-12-05T05:55:03;47.27;;;20.40;;
19043;SDS011;9654;52.302;8.120;2022-12-05T05:57:32;46.53;;;20.37;;
19043;SDS011;9654;52.302;8.120;2022-12-05T05:59:59;47.93;;;20.37;;
19043;SDS011;9654;52.302;8.120;2022-12-05T06:02:30;44.30;;;19.90;;
19043;SDS011;9654;52.302;8.120;2022-12-05T06:04:57;45.40;;;20.73;;
19043;SDS011;9654;52.302;8.120;2022-12-05T06:07:24;50.83;;;21.03;;
19043;SDS011;9654;52.302;8.120;2022-12-05T06:09:52;51.03;;;22.83;;
19043;SDS011;9654;52.302;8.120;2022-12-05T06:12:19;48.23;;;21.50;;
19043;SDS011;9654;52.302;8.120;2022-12-05T06:14:46;45.70;;;20.57;;
19043;SDS011;9654;52.302;8.120;2022-12-05T06:17:14;48.77;;;21.20;;
19043;SDS011;9654;52.302;8.120;2022-12-05T06:19:40;49.40;;;21.97;;
19043;SDS011;9654;52.302;8.120;2022-12-05T06:22:07;50.03;;;20.67;;
19043;SDS011;9654;52.302;8.120;2022-12-05T06:24:34;47.93;;;20.83;;
19043;SDS011;9654;52.302;8.120;2022-12-05T06:27:02;48.53;;;21.90;;
19043;SDS011;9654;52.302;8.120;2022-12-05T06:29:29;48.07;;;21.13;;
19043;SDS011;9654;52.302;8.120;2022-12-05T06:31:56;47.33;;;20.50;;
19043;SDS011;9654;52.302;8.120;2022-12-05T06:34:23;47.60;;;23.03;;
19043;SDS011;9654;52.302;8.120;2022-12-05T06:36:49;49.60;;;21.87;;
19043;SDS011;9654;52.302;8.120;2022-12-05T06:39:16;44.97;;;20.07;;
19043;SDS011;9654;52.302;8.120;2022-12-05T06:41:43;56.47;;;23.27;;
19043;SDS011;9654;52.302;8.120;2022-12-05T06:44:11;51.77;;;21.57;;
19043;SDS011;9654;52.302;8.120;2022-12-05T06:46:38;47.97;;;22.13;;
19043;SDS011;9654;52.302;8.120;2022-12-05T06:49:04;46.27;;;21.47;;
19043;SDS011;9654;52.302;8.120;2022-12-05T06:51:31;50.57;;;23.50;;
19043;SDS011;9654;52.302;8.120;2022-12-05T06:53:58;51.30;;;21.47;;
19043;SDS011;9654;52.302;8.120;2022-12-05T06:56:25;48.87;;;21.23;;
19043;SDS011;9654;52.302;8.120;2022-12-05T06:58:52;52.10;;;22.60;;
19043;SDS011;9654;52.302;8.120;2022-12-05T07:01:22;53.43;;;22.27;;
19043;SDS011;9654;52.302;8.120;2022-12-05T07:04:06;50.27;;;22.33;;
19043;SDS011;9654;52.302;8.120;2022-12-05T07:06:36;56.17;;;22.73;;
19043;SDS011;9654;52.302;8.120;2022-12-05T07:09:04;50.23;;;21.93;;
19043;SDS011;9654;52.302;8.120;2022-12-05T07:11:31;52.17;;;21.57;;
19043;SDS011;9654;52.302;8.120;2022-12-05T07:13:58;49.87;;;21.77;;
19043;SDS011;9654;52.302;8.120;2022-12-05T07:16:26;50.10;;;21.80;;
19043;SDS011;9654;52.302;8.120;2022-12-05T07:18:53;45.93;;;21.27;;
19043;SDS011;9654;52.302;8.120;2022-12-05T07:21:21;52.87;;;22.40;;
19043;SDS011;9654;52.302;8.120;2022-12-05T07:23:48;44.50;;;20.93;;
19043;SDS011;9654;52.302;8.120;2022-12-05T07:26:16;49.50;;;21.53;;
19043;SDS011;9654;52.302;8.120;2022-12-05T07:28:44;50.87;;;22.23;;
19043;SDS011;9654;52.302;8.120;2022-12-05T07:31:13;47.40;;;21.07;;
19043;SDS011;9654;52.302;8.120;2022-12-05T07:33:41;54.03;;;22.37;;
19043;SDS011;9654;52.302;8.120;2022-12-05T07:36:09;52.00;;;22.80;;
19043;SDS011;9654;52.302;8.120;2022-12-05T07:38:37;53.57;;;23.37;;
19043;SDS011;9654;52.302;8.120;2022-12-05T07:41:05;54.83;;;24.40;;
19043;SDS011;9654;52.302;8.120;2022-12-05T07:43:33;54.17;;;23.27;;
19043;SDS011;9654;52.302;8.120;2022-12-05T07:46:00;53.37;;;23.20;;
19043;SDS011;9654;52.302;8.120;2022-12-05T07:48:28;53.53;;;23.00;;
19043;SDS011;9654;52.302;8.120;2022-12-05T07:50:58;51.37;;;22.00;;
19043;SDS011;9654;52.302;8.120;2022-12-05T07:53:26;52.13;;;21.00;;
19043;SDS011;9654;52.302;8.120;2022-12-05T07:55:53;52.80;;;23.20;;
19043;SDS011;9654;52.302;8.120;2022-12-05T07:58:20;45.33;;;21.87;;
19043;SDS011;9654;52.302;8.120;2022-12-05T08:00:47;54.33;;;22.47;;
19043;SDS011;9654;52.302;8.120;2022-12-05T08:03:13;54.23;;;21.97;;
19043;SDS011;9654;52.302;8.120;2022-12-05T08:05:40;45.67;;;21.60;;
19043;SDS011;9654;52.302;8.120;2022-12-05T08:08:08;53.40;;;23.27;;
19043;SDS011;9654;52.302;8.120;2022-12-05T08:10:35;51.07;;;21.13;;
19043;SDS011;9654;52.302;8.120;2022-12-05T08:13:02;52.50;;;23.53;;
19043;SDS011;9654;52.302;8.120;2022-12-05T08:15:29;57.43;;;23.67;;
19043;SDS011;9654;52.302;8.120;2022-12-05T08:17:55;50.13;;;21.67;;
19043;SDS011;9654;52.302;8.120;2022-12-05T08:20:22;48.17;;;21.10;;
19043;SDS011;9654;52.302;8.120;2022-12-05T08:22:50;52.37;;;23.13;;
19043;SDS011;9654;52.302;8.120;2022-12-05T08:25:19;53.70;;;22.00;;
19043;SDS011;9654;52.302;8.120;2022-12-05T08:27:45;49.37;;;22.90;;
19043;SDS011;9654;52.302;8.120;2022-12-05T08:30:12;57.13;;;22.50;;
19043;SDS011;9654;52.302;8.120;2022-12-05T08:32:39;49.13;;;20.17;;
19043;SDS011;9654;52.302;8.120;2022-12-05T08:35:06;46.30;;;21.07;;
19043;SDS011;9654;52.302;8.120;2022-12-05T08:37:33;47.97;;;20.43;;
19043;SDS011;9654;52.302;8.120;2022-12-05T08:40:00;48.03;;;21.23;;
19043;SDS011;9654;52.302;8.120;2022-12-05T08:42:28;49.93;;;20.53;;
19043;SDS011;9654;52.302;8.120;2022-12-05T08:44:55;41.03;;;19.40;;
19043;SDS011;9654;52.302;8.120;2022-12-05T08:47:22;44.00;;;20.03;;
19043;SDS011;9654;52.302;8.120;2022-12-05T08:49:48;35.20;;;17.80;;
19043;SDS011;9654;52.302;8.120;2022-12-05T08:52:15;40.23;;;17.23;;
19043;SDS011;9654;52.302;8.120;2022-12-05T08:54:42;34.77;;;17.20;;
19043;SDS011;9654;52.302;8.120;2022-12-05T08:57:09;42.40;;;19.13;;
19043;SDS011;9654;52.302;8.120;2022-12-05T08:59:37;36.90;;;17.73;;
19043;SDS011;9654;52.302;8.120;2022-12-05T09:02:04;35.53;;;17.97;;
19043;SDS011;9654;52.302;8.120;2022-12-05T09:04:30;38.73;;;17.90;;
19043;SDS011;9654;52.302;8.120;2022-12-05T09:07:00;37.50;;;16.70;;
19043;SDS011;9654;52.302;8.120;2022-12-05T09:09:27;37.83;;;17.27;;
19043;SDS011;9654;52.302;8.120;2022-12-05T09:11:54;35.10;;;16.80;;
19043;SDS011;9654;52.302;8.120;2022-12-05T09:14:22;38.17;;;17.57;;
19043;SDS011;9654;52.302;8.120;2022-12-05T09:16:50;33.77;;;16.37;;
19043;SDS011;9654;52.302;8.120;2022-12-05T09:19:18;30.80;;;15.40;;
19043;SDS011;9654;52.302;8.120;2022-12-05T09:21:47;28.90;;;15.13;;
19043;SDS011;9654;52.302;8.120;2022-12-05T09:24:14;26.83;;;15.40;;
19043;SDS011;9654;52.302;8.120;2022-12-05T09:26:41;27.13;;;13.57;;
19043;SDS011;9654;52.302;8.120;2022-12-05T09:29:08;26.77;;;13.73;;
19043;SDS011;9654;52.302;8.120;2022-12-05T09:31:35;25.83;;;13.90;;
19043;SDS011;9654;52.302;8.120;2022-12-05T09:34:04;26.00;;;15.20;;
19043;SDS011;9654;52.302;8.120;2022-12-05T09:36:31;23.03;;;13.33;;
19043;SDS011;9654;52.302;8.120;2022-12-05T09:38:59;26.53;;;14.27;;
19043;SDS011;9654;52.302;8.120;2022-12-05T09:41:33;22.07;;;12.50;;
19043;SDS011;9654;52.302;8.120;2022-12-05T09:44:40;21.53;;;11.93;;
19043;SDS011;9654;52.302;8.120;2022-12-05T09:47:16;22.90;;;12.93;;
19043;SDS011;9654;52.302;8.120;2022-12-05T09:49:56;24.50;;;13.20;;
19043;SDS011;9654;52.302;8.120;2022-12-05T09:52:26;25.20;;;13.80;;
19043;SDS011;9654;52.302;8.120;2022-12-05T09:54:55;21.30;;;12.43;;
19043;SDS011;9654;52.302;8.120;2022-12-05T09:57:29;22.80;;;12.67;;
19043;SDS011;9654;52.302;8.120;2022-12-05T09:59:59;23.43;;;12.00;;
19043;SDS011;9654;52.302;8.120;2022-12-05T10:02:31;21.53;;;12.60;;
19043;SDS011;9654;52.302;8.120;2022-12-05T10:05:12;19.23;;;12.03;;
19043;SDS011;9654;52.302;8.120;2022-12-05T10:07:46;19.30;;;11.47;;
19043;SDS011;9654;52.302;8.120;2022-12-05T10:10:21;19.00;;;10.97;;
19043;SDS011;9654;52.302;8.120;2022-12-05T10:12:58;18.00;;;10.87;;
19043;SDS011;9654;52.302;8.120;2022-12-05T10:15:44;21.77;;;11.30;;
19043;SDS011;9654;52.302;8.120;2022-12-05T10:18:14;21.97;;;11.83;;
19043;SDS011;9654;52.302;8.120;2022-12-05T10:20:53;23.47;;;12.10;;
19043;SDS011;9654;52.302;8.120;2022-12-05T10:23:24;19.87;;;11.17;;
19043;SDS011;9654;52.302;8.120;2022-12-05T10:25:55;21.70;;;12.33;;
19043;SDS011;9654;52.302;8.120;2022-12-05T10:28:26;21.37;;;12.23;;
19043;SDS011;9654;52.302;8.120;2022-12-05T10:30:57;22.20;;;11.43;;
19043;SDS011;9654;52.302;8.120;2022-12-05T10:33:30;26.20;;;13.23;;
19043;SDS011;9654;52.302;8.120;2022-12-05T10:36:09;21.83;;;12.63;;
19043;SDS011;9654;52.302;8.120;2022-12-05T10:38:37;21.27;;;12.10;;
19043;SDS011;9654;52.302;8.120;2022-12-05T10:41:06;20.97;;;11.63;;
19043;SDS011;9654;52.302;8.120;2022-12-05T10:43:35;21.30;;;11.33;;
19043;SDS011;9654;52.302;8.120;2022-12-05T10:46:04;17.07;;;10.73;;
19043;SDS011;9654;52.302;8.120;2022-12-05T10:51:00;23.50;;;13.07;;
19043;SDS011;9654;52.302;8.120;2022-12-05T10:53:31;17.37;;;11.27;;
19043;SDS011;9654;52.302;8.120;2022-12-05T10:56:05;22.33;;;12.17;;
19043;SDS011;9654;52.302;8.120;2022-12-05T10:59:04;18.27;;;11.60;;
19043;SDS011;9654;52.302;8.120;2022-12-05T11:01:31;19.77;;;11.70;;
19043;SDS011;9654;52.302;8.120;2022-12-05T11:03:59;22.83;;;13.07;;
19043;SDS011;9654;52.302;8.120;2022-12-05T11:06:28;22.20;;;12.73;;
19043;SDS011;9654;52.302;8.120;2022-12-05T11:08:58;23.70;;;13.40;;
19043;SDS011;9654;52.302;8.120;2022-12-05T11:11:30;27.43;;;12.77;;
19043;SDS011;9654;52.302;8.120;2022-12-05T11:13:59;21.50;;;13.40;;
19043;SDS011;9654;52.302;8.120;2022-12-05T11:16:29;25.60;;;12.60;;
19043;SDS011;9654;52.302;8.120;2022-12-05T11:18:59;21.67;;;12.60;;
19043;SDS011;9654;52.302;8.120;2022-12-05T11:21:48;24.63;;;12.57;;
19043;SDS011;9654;52.302;8.120;2022-12-05T11:24:21;22.07;;;11.77;;
19043;SDS011;9654;52.302;8.120;2022-12-05T11:26:51;24.90;;;12.93;;
19043;SDS011;9654;52.302;8.120;2022-12-05T11:29:31;22.37;;;13.50;;
19043;SDS011;9654;52.302;8.120;2022-12-05T11:32:00;21.07;;;11.80;;
19043;SDS011;9654;52.302;8.120;2022-12-05T11:34:29;20.53;;;12.43;;
19043;SDS011;9654;52.302;8.120;2022-12-05T11:37:02;21.47;;;12.03;;
19043;SDS011;9654;52.302;8.120;2022-12-05T11:39:36;19.10;;;11.83;;
19043;SDS011;9654;52.302;8.120;2022-12-05T11:42:12;17.03;;;11.33;;
19043;SDS011;9654;52.302;8.120;2022-12-05T11:44:59;25.13;;;13.40;;
19043;SDS011;9654;52.302;8.120;2022-12-05T11:47:48;18.03;;;11.07;;
19043;SDS011;9654;52.302;8.120;2022-12-05T11:50:32;19.03;;;12.07;;
19043;SDS011;9654;52.302;8.120;2022-12-05T11:53:30;19.87;;;12.50;;
19043;SDS011;9654;52.302;8.120;2022-12-05T11:56:08;16.50;;;10.33;;
19043;SDS011;9654;52.302;8.120;2022-12-05T11:58:55;14.80;;;10.03;;
19043;SDS011;9654;52.302;8.120;2022-12-05T12:01:36;22.27;;;13.73;;
19043;SDS011;9654;52.302;8.120;2022-12-05T12:04:15;16.97;;;10.77;;
19043;SDS011;9654;52.302;8.120;2022-12-05T12:07:21;16.83;;;10.27;;
19043;SDS011;9654;52.302;8.120;2022-12-05T12:09:57;18.67;;;11.50;;
19043;SDS011;9654;52.302;8.120;2022-12-05T12:12:36;19.30;;;12.40;;
19043;SDS011;9654;52.302;8.120;2022-12-05T12:15:15;20.53;;;11.53;;
19043;SDS011;9654;52.302;8.120;2022-12-05T12:17:58;18.80;;;10.50;;
19043;SDS011;9654;52.302;8.120;2022-12-05T12:20:36;15.80;;;10.40;;
19043;SDS011;9654;52.302;8.120;2022-12-05T12:23:22;17.30;;;11.37;;
19043;SDS011;9654;52.302;8.120;2022-12-05T12:26:02;18.67;;;11.27;;
19043;SDS011;9654;52.302;8.120;2022-12-05T12:28:37;17.43;;;11.27;;
19043;SDS011;9654;52.302;8.120;2022-12-05T12:31:15;19.77;;;12.17;;
19043;SDS011;9654;52.302;8.120;2022-12-05T12:33:56;18.27;;;11.63;;
19043;SDS011;9654;52.302;8.120;2022-12-05T12:36:34;18.07;;;10.70;;
19043;SDS011;9654;52.302;8.120;2022-12-05T12:39:14;18.27;;;11.30;;
19043;SDS011;9654;52.302;8.120;2022-12-05T12:48:01;17.90;;;11.20;;
19043;SDS011;9654;52.302;8.120;2022-12-05T12:50:38;19.63;;;12.03;;
19043;SDS011;9654;52.302;8.120;2022-12-05T12:53:12;18.70;;;11.40;;
19043;SDS011;9654;52.302;8.120;2022-12-05T12:56:08;22.17;;;11.83;;
19043;SDS011;9654;52.302;8.120;2022-12-05T12:58:45;16.23;;;10.13;;
19043;SDS011;9654;52.302;8.120;2022-12-05T13:01:21;16.43;;;10.47;;
19043;SDS011;9654;52.302;8.120;2022-12-05T13:03:57;18.47;;;10.67;;
19043;SDS011;9654;52.302;8.120;2022-12-05T13:06:31;20.57;;;12.43;;
19043;SDS011;9654;52.302;8.120;2022-12-05T13:09:04;16.60;;;11.03;;
19043;SDS011;9654;52.302;8.120;2022-12-05T13:11:35;20.00;;;10.90;;
19043;SDS011;9654;52.302;8.120;2022-12-05T13:14:08;16.80;;;10.83;;
19043;SDS011;9654;52.302;8.120;2022-12-05T13:16:39;17.20;;;10.90;;
19043;SDS011;9654;52.302;8.120;2022-12-05T13:19:12;14.53;;;10.10;;
19043;SDS011;9654;52.302;8.120;2022-12-05T13:21:50;15.07;;;9.83;;
19043;SDS011;9654;52.302;8.120;2022-12-05T13:24:18;15.20;;;10.43;;
19043;SDS011;9654;52.302;8.120;2022-12-05T13:26:48;16.70;;;10.87;;
19043;SDS011;9654;52.302;8.120;2022-12-05T13:29:18;19.40;;;11.27;;
19043;SDS011;9654;52.302;8.120;2022-12-05T13:31:48;16.50;;;10.33;;
19043;SDS011;9654;52.302;8.120;2022-12-05T13:34:32;16.90;;;10.77;;
19043;SDS011;9654;52.302;8.120;2022-12-05T13:37:10;17.13;;;10.30;;
19043;SDS011;9654;52.302;8.120;2022-12-05T13:39:59;18.20;;;11.30;;
19043;SDS011;9654;52.302;8.120;2022-12-05T13:42:44;18.23;;;11.20;;
19043;SDS011;9654;52.302;8.120;2022-12-05T13:45:14;17.57;;;10.33;;
19043;SDS011;9654;52.302;8.120;2022-12-05T13:47:47;18.47;;;11.67;;
19043;SDS011;9654;52.302;8.120;2022-12-05T13:50:22;18.17;;;11.87;;
19043;SDS011;9654;52.302;8.120;2022-12-05T13:52:59;17.37;;;10.87;;
19043;SDS011;9654;52.302;8.120;2022-12-05T13:55:30;17.30;;;9.83;;
19043;SDS011;9654;52.302;8.120;2022-12-05T13:58:00;18.87;;;11.60;;
19043;SDS011;9654;52.302;8.120;2022-12-05T14:00:29;17.23;;;11.43;;
19043;SDS011;9654;52.302;8.120;2022-12-05T14:03:04;18.73;;;11.77;;
19043;SDS011;9654;52.302;8.120;2022-12-05T14:05:41;17.40;;;10.53;;
19043;SDS011;9654;52.302;8.120;2022-12-05T14:11:16;16.13;;;10.17;;
19043;SDS011;9654;52.302;8.120;2022-12-05T14:13:43;16.43;;;10.20;;
19043;SDS011;9654;52.302;8.120;2022-12-05T14:19:12;17.43;;;11.07;;
19043;SDS011;9654;52.302;8.120;2022-12-05T14:21:56;17.27;;;10.33;;
19043;SDS011;9654;52.302;8.120;2022-12-05T14:24:29;18.90;;;12.67;;
19043;SDS011;9654;52.302;8.120;2022-12-05T14:27:02;20.87;;;11.90;;
19043;SDS011;9654;52.302;8.120;2022-12-05T14:29:36;19.93;;;11.60;;
19043;SDS011;9654;52.302;8.120;2022-12-05T14:32:14;18.17;;;11.40;;
19043;SDS011;9654;52.302;8.120;2022-12-05T14:34:51;19.70;;;13.67;;
19043;SDS011;9654;52.302;8.120;2022-12-05T14:37:25;20.43;;;11.37;;
19043;SDS011;9654;52.302;8.120;2022-12-05T14:39:54;19.53;;;11.50;;
19043;SDS011;9654;52.302;8.120;2022-12-05T14:42:25;21.03;;;12.67;;
19043;SDS011;9654;52.302;8.120;2022-12-05T14:44:57;21.53;;;12.47;;
19043;SDS011;9654;52.302;8.120;2022-12-05T14:47:27;20.43;;;12.20;;
19043;SDS011;9654;52.302;8.120;2022-12-05T14:49:59;20.03;;;12.50;;
19043;SDS011;9654;52.302;8.120;2022-12-05T14:55:40;18.33;;;10.90;;
19043;SDS011;9654;52.302;8.120;2022-12-05T14:58:08;16.00;;;11.03;;
19043;SDS011;9654;52.302;8.120;2022-12-05T15:00:41;19.53;;;12.60;;
19043;SDS011;9654;52.302;8.120;2022-12-05T15:03:10;17.90;;;11.83;;
19043;SDS011;9654;52.302;8.120;2022-12-05T15:05:48;15.17;;;10.77;;
19043;SDS011;9654;52.302;8.120;2022-12-05T15:08:15;19.57;;;10.93;;
19043;SDS011;9654;52.302;8.120;2022-12-05T15:10:42;18.00;;;11.03;;
19043;SDS011;9654;52.302;8.120;2022-12-05T15:13:11;18.97;;;11.13;;
19043;SDS011;9654;52.302;8.120;2022-12-05T15:15:42;17.70;;;10.90;;